sensor_id;sensor_type;location;lat;lon;timestamp;P1;durP1;ratioP1;P2;durP2;ratioP2
8831;SDS011;4452;50.756;4.472;2023-03-23T00:00:05;3.88;;;3.58;;
8831;SDS011;4452;50.756;4.472;2023-03-23T00:02:33;5.40;;;4.78;;
8831;SDS011;4452;50.756;4.472;2023-03-23T00:05:07;6.82;;;4.38;;
8831;SDS011;4452;50.756;4.472;2023-03-23T00:07:33;8.65;;;4.43;;
8831;SDS011;4452;50.756;4.472;2023-03-23T00:10:00;6.32;;;5.00;;
8831;SDS011;4452;50.756;4.472;2023-03-23T00:12:28;5.30;;;4.28;;
8831;SDS011;4452;50.756;4.472;2023-03-23T00:15:04;4.60;;;4.20;;
8831;SDS011;4452;50.756;4.472;2023-03-23T00:17:33;5.22;;;4.72;;
8831;SDS011;4452;50.756;4.472;2023-03-23T00:19:59;4.40;;;3.28;;
8831;SDS011;4452;50.756;4.472;2023-03-23T00:22:28;3.88;;;3.55;;
8831;SDS011;4452;50.756;4.472;2023-03-23T00:24:54;4.80;;;4.40;;
8831;SDS011;4452;50.756;4.472;2023-03-23T00:27:21;10.50;;;4.60;;
8831;SDS011;4452;50.756;4.472;2023-03-23T00:29:49;6.40;;;4.25;;
8831;SDS011;4452;50.756;4.472;2023-03-23T00:32:17;4.57;;;4.18;;
8831;SDS011;4452;50.756;4.472;2023-03-23T00:34:45;6.88;;;4.28;;
8831;SDS011;4452;50.756;4.472;2023-03-23T00:37:13;7.88;;;4.72;;
8831;SDS011;4452;50.756;4.472;2023-03-23T00:39:41;4.65;;;4.22;;
8831;SDS011;4452;50.756;4.472;2023-03-23T00:42:10;4.72;;;4.22;;
8831;SDS011;4452;50.756;4.472;2023-03-23T00:44:37;4.95;;;3.58;;
8831;SDS011;4452;50.756;4.472;2023-03-23T00:47:05;4.72;;;4.32;;
8831;SDS011;4452;50.756;4.472;2023-03-23T00:49:33;3.80;;;3.50;;
8831;SDS011;4452;50.756;4.472;2023-03-23T00:52:02;5.20;;;4.70;;
8831;SDS011;4452;50.756;4.472;2023-03-23T00:54:29;6.63;;;5.30;;
8831;SDS011;4452;50.756;4.472;2023-03-23T00:56:54;7.60;;;4.55;;
8831;SDS011;4452;50.756;4.472;2023-03-23T00:59:20;4.85;;;4.20;;
8831;SDS011;4452;50.756;4.472;2023-03-23T01:01:47;3.58;;;3.35;;
8831;SDS011;4452;50.756;4.472;2023-03-23T01:04:13;6.40;;;4.68;;
8831;SDS011;4452;50.756;4.472;2023-03-23T01:06:41;5.68;;;4.28;;
8831;SDS011;4452;50.756;4.472;2023-03-23T01:09:09;7.50;;;4.22;;
8831;SDS011;4452;50.756;4.472;2023-03-23T01:11:46;6.45;;;4.68;;
8831;SDS011;4452;50.756;4.472;2023-03-23T01:14:13;6.03;;;4.30;;
8831;SDS011;4452;50.756;4.472;2023-03-23T01:16:42;4.55;;;4.05;;
8831;SDS011;4452;50.756;4.472;2023-03-23T01:19:08;4.00;;;3.70;;
8831;SDS011;4452;50.756;4.472;2023-03-23T01:21:35;4.70;;;4.28;;
8831;SDS011;4452;50.756;4.472;2023-03-23T01:24:01;5.22;;;4.68;;
8831;SDS011;4452;50.756;4.472;2023-03-23T01:26:27;7.57;;;4.07;;
8831;SDS011;4452;50.756;4.472;2023-03-23T01:28:53;6.57;;;4.47;;
8831;SDS011;4452;50.756;4.472;2023-03-23T01:31:21;4.85;;;4.25;;
8831;SDS011;4452;50.756;4.472;2023-03-23T01:33:48;12.52;;;4.13;;
8831;SDS011;4452;50.756;4.472;2023-03-23T01:36:21;4.25;;;3.17;;
8831;SDS011;4452;50.756;4.472;2023-03-23T01:38:54;4.30;;;3.90;;
8831;SDS011;4452;50.756;4.472;2023-03-23T01:41:21;4.03;;;3.67;;
8831;SDS011;4452;50.756;4.472;2023-03-23T01:44:01;8.93;;;4.00;;
8831;SDS011;4452;50.756;4.472;2023-03-23T01:46:34;5.03;;;4.63;;
8831;SDS011;4452;50.756;4.472;2023-03-23T01:49:06;3.88;;;3.58;;
8831;SDS011;4452;50.756;4.472;2023-03-23T01:51:42;6.53;;;4.18;;
8831;SDS011;4452;50.756;4.472;2023-03-23T01:54:15;4.90;;;4.00;;
8831;SDS011;4452;50.756;4.472;2023-03-23T01:56:47;4.78;;;4.10;;
8831;SDS011;4452;50.756;4.472;2023-03-23T01:59:17;7.60;;;5.07;;
8831;SDS011;4452;50.756;4.472;2023-03-23T02:01:44;4.40;;;3.72;;
8831;SDS011;4452;50.756;4.472;2023-03-23T02:04:14;4.18;;;3.75;;
8831;SDS011;4452;50.756;4.472;2023-03-23T02:06:42;6.45;;;3.85;;
8831;SDS011;4452;50.756;4.472;2023-03-23T02:09:09;4.60;;;4.13;;
8831;SDS011;4452;50.756;4.472;2023-03-23T02:11:38;4.25;;;3.90;;
8831;SDS011;4452;50.756;4.472;2023-03-23T02:14:04;3.80;;;3.45;;
8831;SDS011;4452;50.756;4.472;2023-03-23T02:16:42;4.47;;;3.70;;
8831;SDS011;4452;50.756;4.472;2023-03-23T02:33:36;2.80;;;2.60;;
8831;SDS011;4452;50.756;4.472;2023-03-23T02:41:31;4.50;;;3.10;;
8831;SDS011;4452;50.756;4.472;2023-03-23T02:46:30;3.47;;;2.90;;
8831;SDS011;4452;50.756;4.472;2023-03-23T02:48:57;2.65;;;2.45;;
8831;SDS011;4452;50.756;4.472;2023-03-23T02:51:25;3.15;;;2.90;;
8831;SDS011;4452;50.756;4.472;2023-03-23T02:53:53;3.17;;;2.97;;
8831;SDS011;4452;50.756;4.472;2023-03-23T02:56:22;6.05;;;3.38;;
8831;SDS011;4452;50.756;4.472;2023-03-23T02:58:50;6.28;;;3.35;;
8831;SDS011;4452;50.756;4.472;2023-03-23T03:01:45;10.07;;;2.72;;
8831;SDS011;4452;50.756;4.472;2023-03-23T03:04:14;3.50;;;2.85;;
8831;SDS011;4452;50.756;4.472;2023-03-23T03:12:51;7.57;;;3.63;;
8831;SDS011;4452;50.756;4.472;2023-03-23T03:15:06;4.57;;;3.55;;
8831;SDS011;4452;50.756;4.472;2023-03-23T03:20:32;4.63;;;2.67;;
8831;SDS011;4452;50.756;4.472;2023-03-23T03:23:02;3.08;;;2.67;;
8831;SDS011;4452;50.756;4.472;2023-03-23T03:25:39;3.85;;;3.15;;
8831;SDS011;4452;50.756;4.472;2023-03-23T03:28:07;3.55;;;3.00;;
8831;SDS011;4452;50.756;4.472;2023-03-23T03:30:33;8.15;;;3.35;;
8831;SDS011;4452;50.756;4.472;2023-03-23T03:33:01;2.95;;;2.53;;
8831;SDS011;4452;50.756;4.472;2023-03-23T03:35:28;5.40;;;3.00;;
8831;SDS011;4452;50.756;4.472;2023-03-23T03:37:56;3.72;;;3.15;;
8831;SDS011;4452;50.756;4.472;2023-03-23T03:40:29;6.25;;;2.75;;
8831;SDS011;4452;50.756;4.472;2023-03-23T03:42:54;6.25;;;4.00;;
8831;SDS011;4452;50.756;4.472;2023-03-23T03:45:20;4.45;;;3.20;;
8831;SDS011;4452;50.756;4.472;2023-03-23T03:47:46;5.47;;;2.80;;
8831;SDS011;4452;50.756;4.472;2023-03-23T03:50:11;3.97;;;2.95;;
8831;SDS011;4452;50.756;4.472;2023-03-23T03:52:38;2.63;;;2.42;;
8831;SDS011;4452;50.756;4.472;2023-03-23T03:55:05;4.57;;;3.20;;
8831;SDS011;4452;50.756;4.472;2023-03-23T03:57:32;7.15;;;2.67;;
8831;SDS011;4452;50.756;4.472;2023-03-23T03:59:58;4.10;;;2.70;;
8831;SDS011;4452;50.756;4.472;2023-03-23T04:02:24;5.07;;;2.92;;
8831;SDS011;4452;50.756;4.472;2023-03-23T04:04:50;4.55;;;3.47;;
8831;SDS011;4452;50.756;4.472;2023-03-23T04:07:17;4.63;;;2.70;;
8831;SDS011;4452;50.756;4.472;2023-03-23T04:09:44;8.52;;;3.25;;
8831;SDS011;4452;50.756;4.472;2023-03-23T04:12:14;3.97;;;2.88;;
8831;SDS011;4452;50.756;4.472;2023-03-23T04:14:39;2.45;;;2.30;;
8831;SDS011;4452;50.756;4.472;2023-03-23T04:17:05;3.55;;;2.13;;
8831;SDS011;4452;50.756;4.472;2023-03-23T04:19:34;5.78;;;2.38;;
8831;SDS011;4452;50.756;4.472;2023-03-23T04:22:02;8.65;;;2.58;;
8831;SDS011;4452;50.756;4.472;2023-03-23T04:24:29;6.50;;;2.40;;
8831;SDS011;4452;50.756;4.472;2023-03-23T04:26:57;3.45;;;2.35;;
8831;SDS011;4452;50.756;4.472;2023-03-23T04:29:23;9.13;;;2.63;;
8831;SDS011;4452;50.756;4.472;2023-03-23T04:31:49;2.35;;;2.03;;
8831;SDS011;4452;50.756;4.472;2023-03-23T04:34:17;3.42;;;2.13;;
8831;SDS011;4452;50.756;4.472;2023-03-23T04:36:44;5.25;;;2.50;;
8831;SDS011;4452;50.756;4.472;2023-03-23T04:39:11;8.90;;;2.58;;
8831;SDS011;4452;50.756;4.472;2023-03-23T04:41:38;4.45;;;2.33;;
8831;SDS011;4452;50.756;4.472;2023-03-23T04:44:05;3.35;;;2.40;;
8831;SDS011;4452;50.756;4.472;2023-03-23T04:46:32;3.40;;;2.13;;
8831;SDS011;4452;50.756;4.472;2023-03-23T04:48:58;2.28;;;1.80;;
8831;SDS011;4452;50.756;4.472;2023-03-23T04:51:24;3.03;;;2.10;;
8831;SDS011;4452;50.756;4.472;2023-03-23T04:53:52;5.05;;;2.28;;
8831;SDS011;4452;50.756;4.472;2023-03-23T04:56:19;5.75;;;2.13;;
8831;SDS011;4452;50.756;4.472;2023-03-23T04:58:45;9.02;;;2.28;;
8831;SDS011;4452;50.756;4.472;2023-03-23T05:01:12;2.83;;;1.90;;
8831;SDS011;4452;50.756;4.472;2023-03-23T05:03:39;3.15;;;1.85;;
8831;SDS011;4452;50.756;4.472;2023-03-23T05:06:05;2.30;;;1.98;;
8831;SDS011;4452;50.756;4.472;2023-03-23T05:08:31;3.60;;;1.90;;
8831;SDS011;4452;50.756;4.472;2023-03-23T05:10:58;3.10;;;2.08;;
8831;SDS011;4452;50.756;4.472;2023-03-23T05:13:25;8.90;;;2.35;;
8831;SDS011;4452;50.756;4.472;2023-03-23T05:15:51;5.53;;;2.58;;
8831;SDS011;4452;50.756;4.472;2023-03-23T05:18:17;4.47;;;1.90;;
8831;SDS011;4452;50.756;4.472;2023-03-23T05:20:45;5.35;;;2.33;;
8831;SDS011;4452;50.756;4.472;2023-03-23T05:23:11;4.85;;;2.25;;
8831;SDS011;4452;50.756;4.472;2023-03-23T05:25:37;6.00;;;1.90;;
8831;SDS011;4452;50.756;4.472;2023-03-23T05:28:07;2.88;;;2.05;;
8831;SDS011;4452;50.756;4.472;2023-03-23T05:30:33;2.75;;;1.73;;
8831;SDS011;4452;50.756;4.472;2023-03-23T05:33:00;6.35;;;2.22;;
8831;SDS011;4452;50.756;4.472;2023-03-23T05:35:25;4.07;;;2.45;;
8831;SDS011;4452;50.756;4.472;2023-03-23T05:37:52;3.90;;;2.22;;
8831;SDS011;4452;50.756;4.472;2023-03-23T05:40:18;4.10;;;2.35;;
8831;SDS011;4452;50.756;4.472;2023-03-23T05:42:45;3.90;;;1.85;;
8831;SDS011;4452;50.756;4.472;2023-03-23T05:45:12;2.95;;;2.28;;
8831;SDS011;4452;50.756;4.472;2023-03-23T05:47:39;4.47;;;2.80;;
8831;SDS011;4452;50.756;4.472;2023-03-23T05:50:06;8.20;;;2.55;;
8831;SDS011;4452;50.756;4.472;2023-03-23T05:52:34;4.78;;;2.20;;
8831;SDS011;4452;50.756;4.472;2023-03-23T05:55:01;2.40;;;2.20;;
8831;SDS011;4452;50.756;4.472;2023-03-23T05:57:28;6.13;;;2.58;;
8831;SDS011;4452;50.756;4.472;2023-03-23T05:59:55;2.90;;;1.83;;
8831;SDS011;4452;50.756;4.472;2023-03-23T06:02:22;5.18;;;2.35;;
8831;SDS011;4452;50.756;4.472;2023-03-23T06:04:49;3.80;;;2.47;;
8831;SDS011;4452;50.756;4.472;2023-03-23T06:07:15;6.68;;;2.60;;
8831;SDS011;4452;50.756;4.472;2023-03-23T06:09:41;6.75;;;2.45;;
8831;SDS011;4452;50.756;4.472;2023-03-23T06:12:07;4.15;;;2.30;;
8831;SDS011;4452;50.756;4.472;2023-03-23T06:14:34;3.55;;;2.20;;
8831;SDS011;4452;50.756;4.472;2023-03-23T06:17:00;5.57;;;2.05;;
8831;SDS011;4452;50.756;4.472;2023-03-23T06:19:26;6.18;;;2.67;;
8831;SDS011;4452;50.756;4.472;2023-03-23T06:21:53;6.57;;;2.17;;
8831;SDS011;4452;50.756;4.472;2023-03-23T06:24:20;5.30;;;2.63;;
8831;SDS011;4452;50.756;4.472;2023-03-23T06:26:46;5.57;;;2.22;;
8831;SDS011;4452;50.756;4.472;2023-03-23T06:29:13;5.40;;;1.80;;
8831;SDS011;4452;50.756;4.472;2023-03-23T06:31:40;4.78;;;2.03;;
8831;SDS011;4452;50.756;4.472;2023-03-23T06:34:09;3.03;;;2.10;;
8831;SDS011;4452;50.756;4.472;2023-03-23T06:36:36;10.82;;;2.70;;
8831;SDS011;4452;50.756;4.472;2023-03-23T06:39:03;5.93;;;2.40;;
8831;SDS011;4452;50.756;4.472;2023-03-23T06:41:30;7.00;;;2.40;;
8831;SDS011;4452;50.756;4.472;2023-03-23T06:43:56;5.65;;;2.40;;
8831;SDS011;4452;50.756;4.472;2023-03-23T06:46:22;3.90;;;2.55;;
8831;SDS011;4452;50.756;4.472;2023-03-23T06:48:48;6.38;;;2.38;;
8831;SDS011;4452;50.756;4.472;2023-03-23T06:51:15;3.38;;;2.00;;
8831;SDS011;4452;50.756;4.472;2023-03-23T06:53:41;2.70;;;2.20;;
8831;SDS011;4452;50.756;4.472;2023-03-23T06:56:07;2.20;;;2.00;;
8831;SDS011;4452;50.756;4.472;2023-03-23T06:58:32;2.92;;;2.10;;
8831;SDS011;4452;50.756;4.472;2023-03-23T07:00:58;6.65;;;2.25;;
8831;SDS011;4452;50.756;4.472;2023-03-23T07:03:26;5.10;;;2.00;;
8831;SDS011;4452;50.756;4.472;2023-03-23T07:05:53;6.10;;;2.35;;
8831;SDS011;4452;50.756;4.472;2023-03-23T07:08:19;4.28;;;2.15;;
8831;SDS011;4452;50.756;4.472;2023-03-23T07:10:45;3.50;;;2.38;;
8831;SDS011;4452;50.756;4.472;2023-03-23T07:13:11;5.30;;;2.35;;
8831;SDS011;4452;50.756;4.472;2023-03-23T07:15:38;5.32;;;2.33;;
8831;SDS011;4452;50.756;4.472;2023-03-23T07:18:04;6.03;;;1.92;;
8831;SDS011;4452;50.756;4.472;2023-03-23T07:20:30;3.15;;;2.38;;
8831;SDS011;4452;50.756;4.472;2023-03-23T07:22:55;2.65;;;2.42;;
8831;SDS011;4452;50.756;4.472;2023-03-23T07:25:21;3.92;;;2.63;;
8831;SDS011;4452;50.756;4.472;2023-03-23T07:27:47;8.82;;;2.50;;
8831;SDS011;4452;50.756;4.472;2023-03-23T07:30:13;7.70;;;2.42;;
8831;SDS011;4452;50.756;4.472;2023-03-23T07:32:40;8.23;;;2.30;;
8831;SDS011;4452;50.756;4.472;2023-03-23T07:35:06;4.47;;;2.10;;
8831;SDS011;4452;50.756;4.472;2023-03-23T07:37:33;7.90;;;2.30;;
8831;SDS011;4452;50.756;4.472;2023-03-23T07:39:59;2.30;;;2.03;;
8831;SDS011;4452;50.756;4.472;2023-03-23T07:42:24;4.78;;;2.55;;
8831;SDS011;4452;50.756;4.472;2023-03-23T07:44:50;2.83;;;1.80;;
8831;SDS011;4452;50.756;4.472;2023-03-23T07:47:15;3.63;;;2.25;;
8831;SDS011;4452;50.756;4.472;2023-03-23T07:49:43;8.38;;;2.55;;
8831;SDS011;4452;50.756;4.472;2023-03-23T07:52:08;5.97;;;2.95;;
8831;SDS011;4452;50.756;4.472;2023-03-23T07:54:36;3.85;;;2.70;;
8831;SDS011;4452;50.756;4.472;2023-03-23T07:57:02;5.40;;;3.17;;
8831;SDS011;4452;50.756;4.472;2023-03-23T07:59:28;7.75;;;3.33;;
8831;SDS011;4452;50.756;4.472;2023-03-23T08:01:53;7.68;;;3.22;;
8831;SDS011;4452;50.756;4.472;2023-03-23T08:04:19;6.47;;;2.67;;
8831;SDS011;4452;50.756;4.472;2023-03-23T08:06:44;4.88;;;2.20;;
8831;SDS011;4452;50.756;4.472;2023-03-23T08:09:10;2.88;;;2.10;;
8831;SDS011;4452;50.756;4.472;2023-03-23T08:11:37;2.58;;;1.83;;
8831;SDS011;4452;50.756;4.472;2023-03-23T08:14:03;3.08;;;1.58;;
8831;SDS011;4452;50.756;4.472;2023-03-23T08:16:30;4.30;;;1.92;;
8831;SDS011;4452;50.756;4.472;2023-03-23T08:18:56;4.40;;;1.70;;
8831;SDS011;4452;50.756;4.472;2023-03-23T08:21:22;9.20;;;1.80;;
8831;SDS011;4452;50.756;4.472;2023-03-23T08:23:48;3.60;;;1.38;;
8831;SDS011;4452;50.756;4.472;2023-03-23T08:26:14;4.60;;;1.83;;
8831;SDS011;4452;50.756;4.472;2023-03-23T08:28:40;8.60;;;1.50;;
8831;SDS011;4452;50.756;4.472;2023-03-23T08:31:08;2.83;;;1.20;;
8831;SDS011;4452;50.756;4.472;2023-03-23T08:33:35;1.65;;;1.20;;
8831;SDS011;4452;50.756;4.472;2023-03-23T08:36:01;1.95;;;1.10;;
8831;SDS011;4452;50.756;4.472;2023-03-23T08:38:28;1.27;;;1.17;;
8831;SDS011;4452;50.756;4.472;2023-03-23T08:40:59;6.63;;;1.05;;
8831;SDS011;4452;50.756;4.472;2023-03-23T08:43:30;4.47;;;1.08;;
8831;SDS011;4452;50.756;4.472;2023-03-23T08:46:00;3.72;;;1.10;;
8831;SDS011;4452;50.756;4.472;2023-03-23T08:48:31;1.20;;;1.02;;
8831;SDS011;4452;50.756;4.472;2023-03-23T08:50:58;4.15;;;1.42;;
8831;SDS011;4452;50.756;4.472;2023-03-23T08:53:26;5.35;;;1.55;;
8831;SDS011;4452;50.756;4.472;2023-03-23T08:55:55;8.70;;;2.10;;
8831;SDS011;4452;50.756;4.472;2023-03-23T08:58:21;1.45;;;1.20;;
8831;SDS011;4452;50.756;4.472;2023-03-23T09:00:47;7.15;;;1.70;;
8831;SDS011;4452;50.756;4.472;2023-03-23T09:03:13;6.13;;;1.40;;
8831;SDS011;4452;50.756;4.472;2023-03-23T09:05:40;1.45;;;1.20;;
8831;SDS011;4452;50.756;4.472;2023-03-23T09:08:10;1.60;;;1.50;;
8831;SDS011;4452;50.756;4.472;2023-03-23T09:10:37;7.55;;;2.00;;
8831;SDS011;4452;50.756;4.472;2023-03-23T09:13:04;3.13;;;1.50;;
8831;SDS011;4452;50.756;4.472;2023-03-23T09:15:30;5.28;;;1.83;;
8831;SDS011;4452;50.756;4.472;2023-03-23T09:17:56;5.25;;;1.45;;
8831;SDS011;4452;50.756;4.472;2023-03-23T09:20:23;3.47;;;1.10;;
8831;SDS011;4452;50.756;4.472;2023-03-23T09:22:51;1.92;;;1.45;;
8831;SDS011;4452;50.756;4.472;2023-03-23T09:25:19;6.07;;;1.80;;
8831;SDS011;4452;50.756;4.472;2023-03-23T09:27:50;3.63;;;1.80;;
8831;SDS011;4452;50.756;4.472;2023-03-23T09:30:18;4.30;;;2.35;;
8831;SDS011;4452;50.756;4.472;2023-03-23T09:32:45;3.40;;;1.73;;
8831;SDS011;4452;50.756;4.472;2023-03-23T09:35:13;3.15;;;1.35;;
8831;SDS011;4452;50.756;4.472;2023-03-23T09:37:41;6.22;;;1.70;;
8831;SDS011;4452;50.756;4.472;2023-03-23T09:40:14;1.77;;;1.65;;
8831;SDS011;4452;50.756;4.472;2023-03-23T09:51:13;1.35;;;1.33;;
8831;SDS011;4452;50.756;4.472;2023-03-23T09:53:45;3.40;;;1.30;;
8831;SDS011;4452;50.756;4.472;2023-03-23T09:56:17;1.73;;;1.55;;
8831;SDS011;4452;50.756;4.472;2023-03-23T09:58:46;3.67;;;1.58;;
8831;SDS011;4452;50.756;4.472;2023-03-23T10:01:22;4.07;;;2.05;;
8831;SDS011;4452;50.756;4.472;2023-03-23T10:03:52;3.53;;;2.00;;
8831;SDS011;4452;50.756;4.472;2023-03-23T10:06:28;1.67;;;1.25;;
8831;SDS011;4452;50.756;4.472;2023-03-23T10:08:55;4.13;;;2.20;;
8831;SDS011;4452;50.756;4.472;2023-03-23T10:16:56;3.45;;;2.35;;
8831;SDS011;4452;50.756;4.472;2023-03-23T10:19:32;2.22;;;2.10;;
8831;SDS011;4452;50.756;4.472;2023-03-23T10:22:05;4.55;;;2.85;;
8831;SDS011;4452;50.756;4.472;2023-03-23T10:24:36;2.90;;;2.53;;
8831;SDS011;4452;50.756;4.472;2023-03-23T10:27:45;2.80;;;2.53;;
8831;SDS011;4452;50.756;4.472;2023-03-23T10:30:29;6.38;;;2.85;;
8831;SDS011;4452;50.756;4.472;2023-03-23T10:33:08;5.82;;;2.95;;
8831;SDS011;4452;50.756;4.472;2023-03-23T10:35:55;11.13;;;3.25;;
8831;SDS011;4452;50.756;4.472;2023-03-23T10:38:43;9.65;;;3.03;;
8831;SDS011;4452;50.756;4.472;2023-03-23T10:41:13;3.88;;;2.75;;
8831;SDS011;4452;50.756;4.472;2023-03-23T10:43:41;5.10;;;3.17;;
8831;SDS011;4452;50.756;4.472;2023-03-23T10:49:12;4.25;;;2.80;;
8831;SDS011;4452;50.756;4.472;2023-03-23T10:51:43;6.32;;;2.95;;
8831;SDS011;4452;50.756;4.472;2023-03-23T10:54:24;9.05;;;3.95;;
8831;SDS011;4452;50.756;4.472;2023-03-23T10:57:01;3.90;;;3.20;;
8831;SDS011;4452;50.756;4.472;2023-03-23T11:00:02;5.32;;;3.05;;
8831;SDS011;4452;50.756;4.472;2023-03-23T11:02:35;6.03;;;4.15;;
8831;SDS011;4452;50.756;4.472;2023-03-23T11:05:42;4.82;;;3.88;;
8831;SDS011;4452;50.756;4.472;2023-03-23T11:08:10;4.93;;;3.70;;
8831;SDS011;4452;50.756;4.472;2023-03-23T11:16:09;4.80;;;3.95;;
8831;SDS011;4452;50.756;4.472;2023-03-23T11:18:40;7.18;;;4.20;;
8831;SDS011;4452;50.756;4.472;2023-03-23T11:21:08;5.18;;;3.65;;
8831;SDS011;4452;50.756;4.472;2023-03-23T11:23:39;4.63;;;4.30;;
8831;SDS011;4452;50.756;4.472;2023-03-23T11:34:36;7.03;;;3.78;;
8831;SDS011;4452;50.756;4.472;2023-03-23T11:37:25;6.65;;;3.50;;
8831;SDS011;4452;50.756;4.472;2023-03-23T11:42:24;9.45;;;3.25;;
8831;SDS011;4452;50.756;4.472;2023-03-23T11:53:16;8.35;;;4.40;;
8831;SDS011;4452;50.756;4.472;2023-03-23T11:58:59;7.45;;;3.22;;
8831;SDS011;4452;50.756;4.472;2023-03-23T12:12:59;5.10;;;2.85;;
8831;SDS011;4452;50.756;4.472;2023-03-23T12:15:54;9.48;;;2.80;;
8831;SDS011;4452;50.756;4.472;2023-03-23T12:18:30;6.47;;;3.35;;
8831;SDS011;4452;50.756;4.472;2023-03-23T12:26:39;5.32;;;3.30;;
8831;SDS011;4452;50.756;4.472;2023-03-23T12:29:30;6.05;;;3.30;;
8831;SDS011;4452;50.756;4.472;2023-03-23T12:43:08;7.93;;;3.63;;
8831;SDS011;4452;50.756;4.472;2023-03-23T12:48:57;6.25;;;3.30;;
8831;SDS011;4452;50.756;4.472;2023-03-23T12:59:32;8.35;;;2.85;;
8831;SDS011;4452;50.756;4.472;2023-03-23T13:02:21;8.52;;;2.70;;
8831;SDS011;4452;50.756;4.472;2023-03-23T13:04:52;10.93;;;3.63;;
8831;SDS011;4452;50.756;4.472;2023-03-23T13:10:49;11.90;;;4.15;;
8831;SDS011;4452;50.756;4.472;2023-03-23T13:13:59;13.30;;;4.20;;
8831;SDS011;4452;50.756;4.472;2023-03-23T13:16:43;9.52;;;4.13;;
8831;SDS011;4452;50.756;4.472;2023-03-23T13:24:56;8.27;;;3.33;;
8831;SDS011;4452;50.756;4.472;2023-03-23T13:29:55;10.05;;;4.03;;
8831;SDS011;4452;50.756;4.472;2023-03-23T13:32:28;5.90;;;3.65;;
8831;SDS011;4452;50.756;4.472;2023-03-23T13:35:02;12.88;;;3.50;;
8831;SDS011;4452;50.756;4.472;2023-03-23T13:37:31;5.20;;;2.92;;
8831;SDS011;4452;50.756;4.472;2023-03-23T13:40:00;10.10;;;4.13;;
8831;SDS011;4452;50.756;4.472;2023-03-23T13:42:46;9.63;;;3.95;;
8831;SDS011;4452;50.756;4.472;2023-03-23T13:47:46;8.65;;;3.55;;
8831;SDS011;4452;50.756;4.472;2023-03-23T13:50:24;11.02;;;4.18;;
8831;SDS011;4452;50.756;4.472;2023-03-23T13:53:00;12.77;;;4.32;;
8831;SDS011;4452;50.756;4.472;2023-03-23T13:55:48;11.45;;;3.08;;
8831;SDS011;4452;50.756;4.472;2023-03-23T13:58:22;6.60;;;3.10;;
8831;SDS011;4452;50.756;4.472;2023-03-23T14:01:01;13.63;;;3.35;;
8831;SDS011;4452;50.756;4.472;2023-03-23T14:03:38;4.95;;;2.85;;
8831;SDS011;4452;50.756;4.472;2023-03-23T14:06:05;7.72;;;3.13;;
8831;SDS011;4452;50.756;4.472;2023-03-23T14:08:38;7.32;;;2.83;;
8831;SDS011;4452;50.756;4.472;2023-03-23T14:16:26;5.70;;;3.10;;
8831;SDS011;4452;50.756;4.472;2023-03-23T14:19:25;7.57;;;4.22;;
8831;SDS011;4452;50.756;4.472;2023-03-23T14:22:02;7.85;;;3.45;;
8831;SDS011;4452;50.756;4.472;2023-03-23T14:24:28;8.25;;;3.22;;
8831;SDS011;4452;50.756;4.472;2023-03-23T14:29:33;11.65;;;4.82;;
8831;SDS011;4452;50.756;4.472;2023-03-23T14:31:59;6.47;;;3.75;;
8831;SDS011;4452;50.756;4.472;2023-03-23T14:34:26;6.68;;;3.97;;
8831;SDS011;4452;50.756;4.472;2023-03-23T14:36:54;8.02;;;3.83;;
8831;SDS011;4452;50.756;4.472;2023-03-23T14:42:16;9.88;;;4.03;;
8831;SDS011;4452;50.756;4.472;2023-03-23T14:44:43;7.80;;;3.13;;
8831;SDS011;4452;50.756;4.472;2023-03-23T14:47:21;5.32;;;2.97;;
8831;SDS011;4452;50.756;4.472;2023-03-23T14:49:53;6.80;;;3.33;;
8831;SDS011;4452;50.756;4.472;2023-03-23T14:52:21;7.88;;;3.60;;
8831;SDS011;4452;50.756;4.472;2023-03-23T14:54:49;4.93;;;2.70;;
8831;SDS011;4452;50.756;4.472;2023-03-23T14:57:16;8.15;;;2.80;;
8831;SDS011;4452;50.756;4.472;2023-03-23T14:59:44;4.00;;;2.33;;
8831;SDS011;4452;50.756;4.472;2023-03-23T15:05:08;8.00;;;3.30;;
8831;SDS011;4452;50.756;4.472;2023-03-23T15:07:42;9.82;;;3.03;;
8831;SDS011;4452;50.756;4.472;2023-03-23T15:10:14;7.85;;;3.47;;
8831;SDS011;4452;50.756;4.472;2023-03-23T15:12:44;7.00;;;3.00;;
8831;SDS011;4452;50.756;4.472;2023-03-23T15:15:33;6.95;;;2.80;;
8831;SDS011;4452;50.756;4.472;2023-03-23T15:17:59;4.78;;;2.90;;
8831;SDS011;4452;50.756;4.472;2023-03-23T15:23:14;7.93;;;3.38;;
8831;SDS011;4452;50.756;4.472;2023-03-23T15:25:47;10.05;;;3.65;;
8831;SDS011;4452;50.756;4.472;2023-03-23T15:28:17;7.28;;;3.63;;
8831;SDS011;4452;50.756;4.472;2023-03-23T15:31:05;13.18;;;4.15;;
8831;SDS011;4452;50.756;4.472;2023-03-23T15:33:38;9.70;;;3.42;;
8831;SDS011;4452;50.756;4.472;2023-03-23T15:36:08;7.60;;;3.25;;
8831;SDS011;4452;50.756;4.472;2023-03-23T15:38:44;7.70;;;3.65;;
8831;SDS011;4452;50.756;4.472;2023-03-23T15:41:25;12.80;;;4.38;;
8831;SDS011;4452;50.756;4.472;2023-03-23T15:43:54;8.02;;;3.95;;
8831;SDS011;4452;50.756;4.472;2023-03-23T15:46:28;6.97;;;3.40;;
8831;SDS011;4452;50.756;4.472;2023-03-23T15:51:26;9.68;;;3.78;;
8831;SDS011;4452;50.756;4.472;2023-03-23T15:53:54;12.43;;;3.67;;
8831;SDS011;4452;50.756;4.472;2023-03-23T15:56:21;9.70;;;3.78;;
8831;SDS011;4452;50.756;4.472;2023-03-23T15:58:47;4.93;;;2.80;;
8831;SDS011;4452;50.756;4.472;2023-03-23T16:01:15;6.68;;;3.17;;
8831;SDS011;4452;50.756;4.472;2023-03-23T16:03:47;11.52;;;3.58;;
8831;SDS011;4452;50.756;4.472;2023-03-23T16:06:14;7.00;;;3.35;;
8831;SDS011;4452;50.756;4.472;2023-03-23T16:08:40;4.10;;;2.88;;
8831;SDS011;4452;50.756;4.472;2023-03-23T16:11:10;8.07;;;3.80;;
8831;SDS011;4452;50.756;4.472;2023-03-23T16:16:08;11.60;;;3.22;;
8831;SDS011;4452;50.756;4.472;2023-03-23T16:18:39;6.18;;;2.90;;
8831;SDS011;4452;50.756;4.472;2023-03-23T16:21:05;8.98;;;3.70;;
8831;SDS011;4452;50.756;4.472;2023-03-23T16:23:31;6.10;;;3.30;;
8831;SDS011;4452;50.756;4.472;2023-03-23T16:25:57;9.32;;;3.42;;
8831;SDS011;4452;50.756;4.472;2023-03-23T16:28:22;5.13;;;2.70;;
8831;SDS011;4452;50.756;4.472;2023-03-23T16:30:48;13.85;;;3.30;;
8831;SDS011;4452;50.756;4.472;2023-03-23T16:33:14;5.57;;;2.97;;
8831;SDS011;4452;50.756;4.472;2023-03-23T16:35:39;5.45;;;3.10;;
8831;SDS011;4452;50.756;4.472;2023-03-23T16:38:06;4.07;;;2.58;;
8831;SDS011;4452;50.756;4.472;2023-03-23T16:40:33;7.75;;;3.35;;
8831;SDS011;4452;50.756;4.472;2023-03-23T16:42:58;11.38;;;3.65;;
8831;SDS011;4452;50.756;4.472;2023-03-23T16:45:24;5.90;;;3.33;;
8831;SDS011;4452;50.756;4.472;2023-03-23T16:47:51;5.50;;;3.33;;
8831;SDS011;4452;50.756;4.472;2023-03-23T16:50:18;6.40;;;3.13;;
8831;SDS011;4452;50.756;4.472;2023-03-23T16:52:45;8.00;;;3.00;;
8831;SDS011;4452;50.756;4.472;2023-03-23T16:55:11;8.25;;;3.60;;
8831;SDS011;4452;50.756;4.472;2023-03-23T16:57:38;9.20;;;3.72;;
8831;SDS011;4452;50.756;4.472;2023-03-23T17:00:06;5.72;;;2.88;;
8831;SDS011;4452;50.756;4.472;2023-03-23T17:02:34;10.45;;;3.08;;
8831;SDS011;4452;50.756;4.472;2023-03-23T17:05:01;11.35;;;3.90;;
8831;SDS011;4452;50.756;4.472;2023-03-23T17:07:27;12.55;;;3.60;;
8831;SDS011;4452;50.756;4.472;2023-03-23T17:09:53;9.43;;;3.25;;
8831;SDS011;4452;50.756;4.472;2023-03-23T17:12:19;13.63;;;4.15;;
8831;SDS011;4452;50.756;4.472;2023-03-23T17:14:45;8.55;;;3.60;;
8831;SDS011;4452;50.756;4.472;2023-03-23T17:17:11;7.82;;;3.97;;
8831;SDS011;4452;50.756;4.472;2023-03-23T17:19:37;13.82;;;3.78;;
8831;SDS011;4452;50.756;4.472;2023-03-23T17:22:03;7.10;;;4.28;;
8831;SDS011;4452;50.756;4.472;2023-03-23T17:24:28;14.25;;;6.30;;
8831;SDS011;4452;50.756;4.472;2023-03-23T17:26:54;7.40;;;3.60;;
8831;SDS011;4452;50.756;4.472;2023-03-23T17:29:20;8.65;;;3.75;;
8831;SDS011;4452;50.756;4.472;2023-03-23T17:31:48;13.35;;;3.42;;
8831;SDS011;4452;50.756;4.472;2023-03-23T17:34:15;7.47;;;3.40;;
8831;SDS011;4452;50.756;4.472;2023-03-23T17:36:42;10.23;;;3.90;;
8831;SDS011;4452;50.756;4.472;2023-03-23T17:39:08;11.43;;;3.80;;
8831;SDS011;4452;50.756;4.472;2023-03-23T17:41:34;14.45;;;3.97;;
8831;SDS011;4452;50.756;4.472;2023-03-23T17:43:59;8.35;;;3.08;;
8831;SDS011;4452;50.756;4.472;2023-03-23T17:46:25;12.90;;;3.70;;
8831;SDS011;4452;50.756;4.472;2023-03-23T17:48:51;11.90;;;4.28;;
8831;SDS011;4452;50.756;4.472;2023-03-23T17:51:17;8.45;;;4.18;;
8831;SDS011;4452;50.756;4.472;2023-03-23T17:53:43;5.80;;;3.78;;
8831;SDS011;4452;50.756;4.472;2023-03-23T17:56:09;10.38;;;3.65;;
8831;SDS011;4452;50.756;4.472;2023-03-23T17:58:34;16.25;;;3.72;;